Civril, Turkey
Current Conditions -  °F | °C
As of 3:50 PM on Thursday 30 Oct 2014 (Local Time) from LTAY Reporting Station
Broken Clouds Broken Clouds  
Wind Chill: 57°   Ceiling: 10000
Heat Index: 57°   Visibility: 6mi
Dew Point: 48°   Wind: 7mph
Humidity: 72%   Direction: 50°NE
Pressure: 29.97"   Gusts: NA
Location:  38.3°N, 29.74°E
Report Text: LTAY 301250Z 05006KT 310V090 9999 SCT030 BKN100 14/09 Q1015
Loading
Personal Weather Stations






























Interactive Weather Map
Tropical Storm Tracking
New forecast layout! Learn more

10-Day Weather Forecast

Advertisements
Track Severe Weather on mobile